Montego — 9HLX8 — position and weather

sailwx.info

Track history (hours):
 
Tides and Currents Weather Stations Pressure Air Temp Water Temp Dewpoint Dewpoint Depression Visibility Wind Speed Wind Dir Waves Ship Positions

Montego

Last reported at 2018-Jan-18 12:00 UTC. Time now 2018-Jan-18 12:04 UTC.
Position N 59°31' E 024°31'.

Length 246 m; draft 7.2 m.

Type: Ship (hazmat cat A). MMSI: 249549000.

Date/timePositionNaut miles runAvg speedWind from/ knotsBaromVisibWave heightAir tempDewpointWater temp
2018-Jan-18 12:00N 59°31' E 024°31'0 0.0
2018-Jan-18 11:30N 59°31' E 024°31'0 0.0
2018-Jan-18 11:00N 59°31' E 024°31'0 0.0
2018-Jan-18 10:30N 59°31' E 024°31'0 0.0
2018-Jan-18 10:00N 59°31' E 024°31'0 0.0
2018-Jan-18 09:30N 59°31' E 024°31'0 0.5
2018-Jan-18 09:00N 59°31' E 024°30'4 7.9
2018-Jan-18 08:30N 59°31' E 024°22'9 5.7
2018-Jan-18 06:55N 59°37' E 024°09'2 4.8
2018-Jan-18 06:30N 59°37' E 024°05'2 4.8
2018-Jan-18 06:01N 59°37' E 024°00'3 5.8
2018-Jan-18 05:30N 59°36' E 023°55'3 6.6
2018-Jan-18 05:00N 59°37' E 023°48'5 9.0
2018-Jan-18 04:29N 59°35' E 023°40'4 9.2
2018-Jan-18 04:00N 59°34' E 023°31'4 8.3
2018-Jan-18 03:30N 59°32' E 023°24'4 8.8
2018-Jan-18 03:00N 59°31' E 023°15'3 6.3
2018-Jan-18 02:30N 59°30' E 023°09'3 4.8
2018-Jan-18 01:56N 59°28' E 023°06'  
2018-Jan-12 12:10N 51°56' E 002°39'210.2
2018-Jan-12 11:59N 51°54' E 002°39'510.2
2018-Jan-12 11:29N 51°49' E 002°37'510.1
2018-Jan-12 10:59N 51°44' E 002°34'510.4
2018-Jan-12 10:29N 51°40' E 002°29'510.3
2018-Jan-12 10:00N 51°36' E 002°24'610.3
2018-Jan-12 09:26N 51°32' E 002°18'410.3
2018-Jan-12 09:00N 51°28' E 002°13'510.0
2018-Jan-12 08:30N 51°24' E 002°08'5 9.7
2018-Jan-12 08:00N 51°20' E 002°08'5 9.5
2018-Jan-12 07:30N 51°15' E 002°07'5 9.4
2018-Jan-12 07:00N 51°12' E 002°00'5 9.2
2018-Jan-12 06:30N 51°10' E 001°54'5 9.0
2018-Jan-12 06:00N 51°08' E 001°48'4 8.5
2018-Jan-12 05:30N 51°05' E 001°43'4 8.1
2018-Jan-12 05:00N 51°02' E 001°39'4 7.8
2018-Jan-12 04:30N 50°59' E 001°35'4 7.4
2018-Jan-12 04:00N 50°56' E 001°31'3 6.8
2018-Jan-12 03:30N 50°53' E 001°28'3 6.8
2018-Jan-12 03:00N 50°50' E 001°26'4 7.4
2018-Jan-12 02:29N 50°46' E 001°24'4 7.9
2018-Jan-12 02:00N 50°43' E 001°22'46 7.9
2018-Jan-11 20:15N 50°22' E 000°19'7 8.7
2018-Jan-11 19:28N 50°20' E 000°08'4 9.0
2018-Jan-11 19:00N 50°19' E 000°02'5 9.3
2018-Jan-11 18:30N 50°18' W 000°05'5 9.3
2018-Jan-11 17:59N 50°16' W 000°12'16 9.4
2018-Jan-11 16:20N 50°07' W 000°32'3 9.5
2018-Jan-11 15:59N 50°05' W 000°35'4 9.3
2018-Jan-11 15:30N 50°01' W 000°38'4 8.9
2018-Jan-11 15:00N 49°57' W 000°42'4 7.4
2018-Jan-11 14:30N 49°53' W 000°42'4 8.0
2018-Jan-11 14:00N 49°50' W 000°38'4 8.1
2018-Jan-11 13:30N 49°47' W 000°34'4 8.9
2018-Jan-11 13:00N 49°43' W 000°30'5 9.7
2018-Jan-11 12:30N 49°39' W 000°26'5 9.7
2018-Jan-11 12:00N 49°36' W 000°21'510.0
2018-Jan-11 11:30N 49°33' W 000°14'611.6
2018-Jan-11 11:01N 49°31' W 000°06'612.7
2018-Jan-11 10:31N 49°29' E 000°04'3 6.0
2018-Jan-11 10:01N 49°28' E 000°08'0 0.0
2018-Jan-11 09:28N 49°28' E 000°08'0 0.0
2018-Jan-11 08:58N 49°28' E 000°08'0 0.0
2018-Jan-11 08:28N 49°28' E 000°08'0 0.0
2018-Jan-11 07:58N 49°28' E 000°08'0 0.0
2018-Jan-11 07:28N 49°28' E 000°08'0 0.0
2018-Jan-11 06:58N 49°28' E 000°08'0 0.0
2018-Jan-11 06:28N 49°28' E 000°08'0 0.0
2018-Jan-11 05:58N 49°28' E 000°08'0 0.0
2018-Jan-11 05:28N 49°28' E 000°08'0 0.0
2018-Jan-11 04:58N 49°28' E 000°08'0 0.0
2018-Jan-11 04:28N 49°28' E 000°08'0 0.0
2018-Jan-11 03:58N 49°28' E 000°08'0 0.0
2018-Jan-11 03:28N 49°28' E 000°08'0 0.0
2018-Jan-11 02:58N 49°28' E 000°08'0 0.0
2018-Jan-11 02:28N 49°28' E 000°08'0 0.0
2018-Jan-11 01:58N 49°28' E 000°08'0 0.0
2018-Jan-11 01:28N 49°28' E 000°08'0 0.0
2018-Jan-11 00:58N 49°28' E 000°08'0 0.0
2018-Jan-11 00:28N 49°28' E 000°08'0 0.0
2018-Jan-10 23:58N 49°28' E 000°08'0 0.0
2018-Jan-10 23:28N 49°28' E 000°08'0 0.0
2018-Jan-10 22:58N 49°28' E 000°08'0 0.0
2018-Jan-10 22:28N 49°28' E 000°08'0 0.0
2018-Jan-10 21:58N 49°28' E 000°08'0 0.0
2018-Jan-10 21:28N 49°28' E 000°08'0 0.0
2018-Jan-10 20:58N 49°28' E 000°08'0 0.0
2018-Jan-10 20:28N 49°28' E 000°08'0 0.0
2018-Jan-10 19:58N 49°28' E 000°08'0 0.0
2018-Jan-10 19:28N 49°28' E 000°08'0 0.0
2018-Jan-10 18:58N 49°28' E 000°08'0 0.0
2018-Jan-10 18:28N 49°28' E 000°08'0 0.0
2018-Jan-10 17:58N 49°28' E 000°08'0 0.0
2018-Jan-10 17:28N 49°28' E 000°08'0 0.0
2018-Jan-10 16:58N 49°28' E 000°08'0 0.0
2018-Jan-10 16:28N 49°28' E 000°08'0 0.0
2018-Jan-10 15:58N 49°28' E 000°08'0 0.0
2018-Jan-10 15:28N 49°28' E 000°08'0 0.0
2018-Jan-10 14:58N 49°28' E 000°08'0 0.0
2018-Jan-10 14:28N 49°28' E 000°08'0 0.0
2018-Jan-10 13:58N 49°28' E 000°08'0 0.0
2018-Jan-10 13:28N 49°28' E 000°08'0 0.0
2018-Jan-10 12:58N 49°28' E 000°08'0 0.0
2018-Jan-10 12:28N 49°28' E 000°08'0 0.0
2018-Jan-10 11:58N 49°28' E 000°08'0 0.0
2018-Jan-10 11:28N 49°28' E 000°08'0 0.0
2018-Jan-10 11:01N 49°28' E 000°08'0 0.0
2018-Jan-10 10:31N 49°28' E 000°08'0 0.0
2018-Jan-10 10:00N 49°28' E 000°08'0 0.0
2018-Jan-10 09:30N 49°28' E 000°08'0 0.0
2018-Jan-10 09:00N 49°28' E 000°08'0 0.0
2018-Jan-10 08:30N 49°28' E 000°08'0 0.0
2018-Jan-10 08:00N 49°28' E 000°08'0 0.0
2018-Jan-10 07:30N 49°28' E 000°08'0 0.0
2018-Jan-10 07:00N 49°28' E 000°08'0 0.0
2018-Jan-10 06:30N 49°28' E 000°08'0 0.0
2018-Jan-10 06:00N 49°28' E 000°08'0 0.0
2018-Jan-10 05:30N 49°28' E 000°08'0 0.0
2018-Jan-10 05:00N 49°28' E 000°08'0 0.0
2018-Jan-10 04:30N 49°28' E 000°08'0 0.0
2018-Jan-10 04:00N 49°28' E 000°08'0 0.0
2018-Jan-10 03:30N 49°28' E 000°08'0 0.0
2018-Jan-10 03:00N 49°28' E 000°08'1 1.1
2018-Jan-10 02:31N 49°29' E 000°07'4 7.7
2018-Jan-10 02:00N 49°30' E 000°02'713.6
2018-Jan-10 01:31N 49°32' W 000°08'612.1
2018-Jan-10 01:00N 49°34' W 000°17'5 9.7
2018-Jan-10 00:30N 49°36' W 000°24'715.0
2018-Jan-10 00:00N 49°39' W 000°34'815.3
2018-Jan-09 23:30N 49°43' W 000°45'6213.4
2018-Jan-09 18:52N 49°55' W 002°20'1913.5
2018-Jan-09 17:28N 49°50' W 002°48'2013.8
2018-Jan-09 16:02N 49°41' W 003°15'114.0
2018-Jan-09 15:58N 49°41' W 003°17'8414.5
2018-Jan-09 10:09N 48°58' W 005°08'215.4
2018-Jan-09 10:00N 48°57' W 005°11'815.5
2018-Jan-09 09:29N 48°53' W 005°22'  
Track history (hours):
 
Tides and Currents Weather Stations Pressure Air Temp Water Temp Dewpoint Dewpoint Depression Visibility Wind Speed Wind Dir Waves Ship Positions

Montego

Last reported at 2018-Jan-18 12:00 UTC. Time now 2018-Jan-18 12:04 UTC.
Position N 59°31' E 024°31'.

Length 246 m; draft 7.2 m.

Type: Ship (hazmat cat A). MMSI: 249549000.

Date/timePositionNaut miles runAvg speedWind from/ knotsBaromVisibWave heightAir tempDewpointWater temp
2018-Jan-18 12:00N 59°31' E 024°31'0 0.0
2018-Jan-18 11:30N 59°31' E 024°31'0 0.0
2018-Jan-18 11:00N 59°31' E 024°31'0 0.0
2018-Jan-18 10:30N 59°31' E 024°31'0 0.0
2018-Jan-18 10:00N 59°31' E 024°31'0 0.0
2018-Jan-18 09:30N 59°31' E 024°31'0 0.5
2018-Jan-18 09:00N 59°31' E 024°30'4 7.9
2018-Jan-18 08:30N 59°31' E 024°22'9 5.7
2018-Jan-18 06:55N 59°37' E 024°09'2 4.8
2018-Jan-18 06:30N 59°37' E 024°05'2 4.8
2018-Jan-18 06:01N 59°37' E 024°00'3 5.8
2018-Jan-18 05:30N 59°36' E 023°55'3 6.6
2018-Jan-18 05:00N 59°37' E 023°48'5 9.0
2018-Jan-18 04:29N 59°35' E 023°40'4 9.2
2018-Jan-18 04:00N 59°34' E 023°31'4 8.3
2018-Jan-18 03:30N 59°32' E 023°24'4 8.8
2018-Jan-18 03:00N 59°31' E 023°15'3 6.3
2018-Jan-18 02:30N 59°30' E 023°09'3 4.8
2018-Jan-18 01:56N 59°28' E 023°06'  
2018-Jan-12 12:10N 51°56' E 002°39'210.2
2018-Jan-12 11:59N 51°54' E 002°39'510.2
2018-Jan-12 11:29N 51°49' E 002°37'510.1
2018-Jan-12 10:59N 51°44' E 002°34'510.4
2018-Jan-12 10:29N 51°40' E 002°29'510.3
2018-Jan-12 10:00N 51°36' E 002°24'610.3
2018-Jan-12 09:26N 51°32' E 002°18'410.3
2018-Jan-12 09:00N 51°28' E 002°13'510.0
2018-Jan-12 08:30N 51°24' E 002°08'5 9.7
2018-Jan-12 08:00N 51°20' E 002°08'5 9.5
2018-Jan-12 07:30N 51°15' E 002°07'5 9.4
2018-Jan-12 07:00N 51°12' E 002°00'5 9.2
2018-Jan-12 06:30N 51°10' E 001°54'5 9.0
2018-Jan-12 06:00N 51°08' E 001°48'4 8.5
2018-Jan-12 05:30N 51°05' E 001°43'4 8.1
2018-Jan-12 05:00N 51°02' E 001°39'4 7.8
2018-Jan-12 04:30N 50°59' E 001°35'4 7.4
2018-Jan-12 04:00N 50°56' E 001°31'3 6.8
2018-Jan-12 03:30N 50°53' E 001°28'3 6.8
2018-Jan-12 03:00N 50°50' E 001°26'4 7.4
2018-Jan-12 02:29N 50°46' E 001°24'4 7.9
2018-Jan-12 02:00N 50°43' E 001°22'46 7.9
2018-Jan-11 20:15N 50°22' E 000°19'7 8.7
2018-Jan-11 19:28N 50°20' E 000°08'4 9.0
2018-Jan-11 19:00N 50°19' E 000°02'5 9.3
2018-Jan-11 18:30N 50°18' W 000°05'5 9.3
2018-Jan-11 17:59N 50°16' W 000°12'16 9.4
2018-Jan-11 16:20N 50°07' W 000°32'3 9.5
2018-Jan-11 15:59N 50°05' W 000°35'4 9.3
2018-Jan-11 15:30N 50°01' W 000°38'4 8.9
2018-Jan-11 15:00N 49°57' W 000°42'4 7.4
2018-Jan-11 14:30N 49°53' W 000°42'4 8.0
2018-Jan-11 14:00N 49°50' W 000°38'4 8.1
2018-Jan-11 13:30N 49°47' W 000°34'4 8.9
2018-Jan-11 13:00N 49°43' W 000°30'5 9.7
2018-Jan-11 12:30N 49°39' W 000°26'5 9.7
2018-Jan-11 12:00N 49°36' W 000°21'510.0
2018-Jan-11 11:30N 49°33' W 000°14'611.6
2018-Jan-11 11:01N 49°31' W 000°06'612.7
2018-Jan-11 10:31N 49°29' E 000°04'3 6.0
2018-Jan-11 10:01N 49°28' E 000°08'0 0.0
2018-Jan-11 09:28N 49°28' E 000°08'0 0.0
2018-Jan-11 08:58N 49°28' E 000°08'0 0.0
2018-Jan-11 08:28N 49°28' E 000°08'0 0.0
2018-Jan-11 07:58N 49°28' E 000°08'0 0.0
2018-Jan-11 07:28N 49°28' E 000°08'0 0.0
2018-Jan-11 06:58N 49°28' E 000°08'0 0.0
2018-Jan-11 06:28N 49°28' E 000°08'0 0.0
2018-Jan-11 05:58N 49°28' E 000°08'0 0.0
2018-Jan-11 05:28N 49°28' E 000°08'0 0.0
2018-Jan-11 04:58N 49°28' E 000°08'0 0.0
2018-Jan-11 04:28N 49°28' E 000°08'0 0.0
2018-Jan-11 03:58N 49°28' E 000°08'0 0.0
2018-Jan-11 03:28N 49°28' E 000°08'0 0.0
2018-Jan-11 02:58N 49°28' E 000°08'0 0.0
2018-Jan-11 02:28N 49°28' E 000°08'0 0.0
2018-Jan-11 01:58N 49°28' E 000°08'0 0.0
2018-Jan-11 01:28N 49°28' E 000°08'0 0.0
2018-Jan-11 00:58N 49°28' E 000°08'0 0.0
2018-Jan-11 00:28N 49°28' E 000°08'0 0.0
2018-Jan-10 23:58N 49°28' E 000°08'0 0.0
2018-Jan-10 23:28N 49°28' E 000°08'0 0.0
2018-Jan-10 22:58N 49°28' E 000°08'0 0.0
2018-Jan-10 22:28N 49°28' E 000°08'0 0.0
2018-Jan-10 21:58N 49°28' E 000°08'0 0.0
2018-Jan-10 21:28N 49°28' E 000°08'0 0.0
2018-Jan-10 20:58N 49°28' E 000°08'0 0.0
2018-Jan-10 20:28N 49°28' E 000°08'0 0.0
2018-Jan-10 19:58N 49°28' E 000°08'0 0.0
2018-Jan-10 19:28N 49°28' E 000°08'0 0.0
2018-Jan-10 18:58N 49°28' E 000°08'0 0.0
2018-Jan-10 18:28N 49°28' E 000°08'0 0.0
2018-Jan-10 17:58N 49°28' E 000°08'0 0.0
2018-Jan-10 17:28N 49°28' E 000°08'0 0.0
2018-Jan-10 16:58N 49°28' E 000°08'0 0.0
2018-Jan-10 16:28N 49°28' E 000°08'0 0.0
2018-Jan-10 15:58N 49°28' E 000°08'0 0.0
2018-Jan-10 15:28N 49°28' E 000°08'0 0.0
2018-Jan-10 14:58N 49°28' E 000°08'0 0.0
2018-Jan-10 14:28N 49°28' E 000°08'0 0.0
2018-Jan-10 13:58N 49°28' E 000°08'0 0.0
2018-Jan-10 13:28N 49°28' E 000°08'0 0.0
2018-Jan-10 12:58N 49°28' E 000°08'0 0.0
2018-Jan-10 12:28N 49°28' E 000°08'0 0.0
2018-Jan-10 11:58N 49°28' E 000°08'0 0.0
2018-Jan-10 11:28N 49°28' E 000°08'0 0.0
2018-Jan-10 11:01N 49°28' E 000°08'0 0.0
2018-Jan-10 10:31N 49°28' E 000°08'0 0.0
2018-Jan-10 10:00N 49°28' E 000°08'0 0.0
2018-Jan-10 09:30N 49°28' E 000°08'0 0.0
2018-Jan-10 09:00N 49°28' E 000°08'0 0.0
2018-Jan-10 08:30N 49°28' E 000°08'0 0.0
2018-Jan-10 08:00N 49°28' E 000°08'0 0.0
2018-Jan-10 07:30N 49°28' E 000°08'0 0.0
2018-Jan-10 07:00N 49°28' E 000°08'0 0.0
2018-Jan-10 06:30N 49°28' E 000°08'0 0.0
2018-Jan-10 06:00N 49°28' E 000°08'0 0.0
2018-Jan-10 05:30N 49°28' E 000°08'0 0.0
2018-Jan-10 05:00N 49°28' E 000°08'0 0.0
2018-Jan-10 04:30N 49°28' E 000°08'0 0.0
2018-Jan-10 04:00N 49°28' E 000°08'0 0.0
2018-Jan-10 03:30N 49°28' E 000°08'0 0.0
2018-Jan-10 03:00N 49°28' E 000°08'1 1.1
2018-Jan-10 02:31N 49°29' E 000°07'4 7.7
2018-Jan-10 02:00N 49°30' E 000°02'713.6
2018-Jan-10 01:31N 49°32' W 000°08'612.1
2018-Jan-10 01:00N 49°34' W 000°17'5 9.7
2018-Jan-10 00:30N 49°36' W 000°24'715.0
2018-Jan-10 00:00N 49°39' W 000°34'815.3
2018-Jan-09 23:30N 49°43' W 000°45'6213.4
2018-Jan-09 18:52N 49°55' W 002°20'1913.5
2018-Jan-09 17:28N 49°50' W 002°48'2013.8
2018-Jan-09 16:02N 49°41' W 003°15'114.0
2018-Jan-09 15:58N 49°41' W 003°17'8414.5
2018-Jan-09 10:09N 48°58' W 005°08'215.4
2018-Jan-09 10:00N 48°57' W 005°11'815.5
2018-Jan-09 09:29N 48°53' W 005°22'  

Dump ship's entire track history